Time;durP1;ratioP1;P1;durP2;ratioP2;P2;SDS_P1;SDS_P2;PMS_P1;PMS_P2;Temp;Humidity;BMP_temperature;BMP_pressure;BME280_temperature;BME280_humidity;BME280_pressure;Samples;Min_cycle;Max_cycle;Signal;HPM_P1;HPM_P2
2022/12/30 00:00:57;;;;;;;1.67;1.57;;;;;;;13.59;55.52;98653.81;6943136;28;20317;-78
2022/12/30 00:04:18;;;;;;;1.27;1.27;;;;;;;13.54;55.48;98647.41;6921651;28;20611;-77
2022/12/30 00:07:40;;;;;;;1.77;1.60;;;;;;;13.42;55.28;98654.63;6923514;28;20280;-77
2022/12/30 00:11:01;;;;;;;1.50;1.40;;;;;;;13.24;56.56;98646.53;6923556;28;20256;-76
2022/12/30 00:33:10;;;;;;;2.30;1.60;;;;;;;13.35;56.76;98651.19;6928988;28;20207;-77
2022/12/30 00:36:31;;;;;;;1.83;1.70;;;;;;;13.43;56.39;98659.00;6950763;28;20360;-77
2022/12/30 00:39:53;;;;;;;1.60;1.50;;;;;;;13.24;56.09;98658.19;6950257;28;20279;-78
2022/12/30 00:43:13;;;;;;;1.57;1.47;;;;;;;13.14;56.65;98670.56;6951218;28;20218;-78
2022/12/30 00:46:36;;;;;;;1.37;1.27;;;;;;;13.38;55.59;98662.41;6950882;28;20226;-78
2022/12/30 00:57:17;;;;;;;1.70;1.60;;;;;;;13.38;55.84;98650.72;6950084;28;20278;-78
2022/12/30 01:00:38;;;;;;;1.90;1.63;;;;;;;13.35;56.38;98675.56;6950231;28;20223;-78
2022/12/30 01:04:00;;;;;;;1.67;1.57;;;;;;;13.26;56.56;98664.19;6950415;28;20270;-78
2022/12/30 01:07:23;;;;;;;1.87;1.53;;;;;;;13.07;57.81;98678.78;6950226;28;20227;-78
2022/12/30 01:10:44;;;;;;;2.30;1.80;;;;;;;13.05;58.25;98693.59;6950003;28;20304;-78
2022/12/30 01:14:06;;;;;;;1.87;1.77;;;;;;;12.94;58.60;98691.59;6950953;28;20283;-78
2022/12/30 01:17:31;;;;;;;1.67;1.57;;;;;;;12.68;58.83;98692.63;6948644;28;20226;-77
2022/12/30 01:20:52;;;;;;;1.40;1.40;;;;;;;12.25;59.70;98699.00;6950365;28;20649;-77
2022/12/30 01:24:15;;;;;;;1.63;1.43;;;;;;;12.44;59.67;98704.28;6948841;28;20344;-77
2022/12/30 01:27:36;;;;;;;1.87;1.70;;;;;;;12.96;58.17;98706.56;6948425;28;20235;-77
2022/12/30 01:30:58;;;;;;;1.80;1.70;;;;;;;13.10;57.33;98699.97;6949519;28;20282;-76
2022/12/30 01:34:20;;;;;;;2.70;2.50;;;;;;;12.93;57.71;98703.47;6950128;28;20348;-77
2022/12/30 01:37:41;;;;;;;2.70;2.17;;;;;;;13.00;57.81;98715.06;6950864;28;20276;-77
2022/12/30 01:41:04;;;;;;;1.40;1.40;;;;;;;12.70;58.01;98709.47;6950951;28;20301;-78
2022/12/30 01:45:00;;;;;;;1.47;1.37;;;;;;;12.82;57.99;98723.13;6951361;28;20752;-77
2022/12/30 01:48:25;;;;;;;1.50;1.47;;;;;;;12.81;57.57;98706.03;6949872;28;20222;-77
2022/12/30 01:51:46;;;;;;;1.73;1.33;;;;;;;12.89;57.60;98722.03;6951450;28;20336;-77
2022/12/30 01:55:11;;;;;;;1.57;1.50;;;;;;;12.90;57.72;98712.00;6948385;28;20202;-77
2022/12/30 01:58:36;;;;;;;1.57;1.47;;;;;;;12.45;58.74;98719.44;6947571;28;20292;-77
2022/12/30 02:01:58;;;;;;;1.50;1.40;;;;;;;12.69;58.17;98715.13;6948405;28;20227;-77
2022/12/30 02:05:21;;;;;;;1.80;1.70;;;;;;;12.70;58.46;98733.00;6948161;28;20253;-77
2022/12/30 02:08:43;;;;;;;1.90;1.60;;;;;;;12.34;59.40;98717.44;6947604;28;20234;-77
2022/12/30 02:12:06;;;;;;;5.50;1.70;;;;;;;12.67;58.58;98728.84;6946314;28;20203;-77
2022/12/30 02:15:36;;;;;;;1.60;1.50;;;;;;;12.77;58.47;98740.03;6947734;28;20211;-77
2022/12/30 02:19:07;;;;;;;1.90;1.30;;;;;;;12.84;57.93;98734.53;6945483;28;20230;-77
2022/12/30 02:22:42;;;;;;;1.50;1.40;;;;;;;12.58;58.33;98730.16;6947307;28;20342;-77
2022/12/30 02:26:27;;;;;;;2.33;1.40;;;;;;;12.63;58.69;98722.22;6946618;28;20195;-76
2022/12/30 02:30:11;;;;;;;1.57;1.50;;;;;;;12.48;58.02;98727.13;6947573;28;20640;-77
2022/12/30 02:33:41;;;;;;;3.17;2.80;;;;;;;12.75;57.94;98733.97;6942176;28;20294;-77
2022/12/30 02:37:07;;;;;;;5.17;3.40;;;;;;;12.29;58.32;98732.66;6947358;28;20234;-76
2022/12/30 02:44:36;;;;;;;4.20;3.10;;;;;;;12.69;57.44;98742.97;6946932;28;20226;-77
2022/12/30 02:47:59;;;;;;;1.40;1.30;;;;;;;12.39;58.27;98751.97;6946243;28;20222;-77
2022/12/30 02:55:02;;;;;;;2.07;1.77;;;;;;;12.56;57.50;98750.38;6946722;28;20598;-77
2022/12/30 02:58:25;;;;;;;1.50;1.40;;;;;;;12.67;56.87;98760.47;6947873;28;20360;-77
2022/12/30 03:05:38;;;;;;;1.63;1.53;;;;;;;12.58;56.62;98754.50;6953617;28;20196;-77
2022/12/30 03:09:07;;;;;;;1.37;1.27;;;;;;;12.49;57.14;98774.75;6952566;28;20222;-77
2022/12/30 03:12:29;;;;;;;1.77;1.67;;;;;;;12.63;56.29;98775.50;6946530;28;20202;-77
2022/12/30 03:15:56;;;;;;;1.50;1.40;;;;;;;12.50;56.42;98771.00;6946428;28;20613;-77
2022/12/30 03:19:20;;;;;;;1.50;1.40;;;;;;;12.56;56.60;98783.66;6945050;28;20231;-77
2022/12/30 03:30:05;;;;;;;1.50;1.40;;;;;;;11.73;57.86;98780.31;6945964;28;20179;-77
2022/12/30 03:33:27;;;;;;;1.70;1.60;;;;;;;11.51;58.98;98773.53;6946188;28;20271;-77
2022/12/30 03:36:50;;;;;;;1.70;1.60;;;;;;;11.89;57.84;98778.00;6945348;28;20230;-77
2022/12/30 03:40:15;;;;;;;1.60;1.50;;;;;;;11.86;57.14;98780.31;6945816;28;20388;-78
2022/12/30 03:43:38;;;;;;;2.50;2.30;;;;;;;11.76;57.75;98775.31;6945642;28;20199;-77
2022/12/30 03:47:00;;;;;;;1.70;1.60;;;;;;;11.52;57.92;98778.69;6945290;28;20257;-78
2022/12/30 03:50:22;;;;;;;1.40;1.30;;;;;;;11.52;57.87;98772.47;6945916;28;20207;-77
2022/12/30 03:53:43;;;;;;;1.50;1.40;;;;;;;11.62;57.40;98783.72;6945650;28;20206;-77
2022/12/30 03:57:04;;;;;;;2.33;1.70;;;;;;;11.59;57.07;98763.34;6945336;28;20296;-77
2022/12/30 04:00:27;;;;;;;1.60;1.30;;;;;;;11.32;57.70;98775.22;6945557;28;20739;-77
2022/12/30 04:03:49;;;;;;;1.70;1.60;;;;;;;11.72;57.42;98767.88;6945599;28;20288;-77
2022/12/30 04:07:10;;;;;;;2.73;1.60;;;;;;;11.75;56.18;98764.75;6945282;28;20284;-77
2022/12/30 04:10:32;;;;;;;1.57;1.50;;;;;;;11.62;56.68;98775.59;6947777;28;20207;-77
2022/12/30 04:13:53;;;;;;;1.50;1.50;;;;;;;11.30;57.42;98765.66;6944874;28;20208;-77
2022/12/30 04:17:16;;;;;;;1.67;1.50;;;;;;;11.08;58.49;98764.22;6926280;28;20231;-78
2022/12/30 04:20:37;;;;;;;1.80;1.70;;;;;;;10.67;58.52;98764.47;6924272;28;20326;-78
2022/12/30 04:23:59;;;;;;;1.57;1.50;;;;;;;10.62;59.12;98752.66;6918196;28;20198;-77
2022/12/30 04:27:20;;;;;;;3.13;1.60;;;;;;;10.70;59.14;98755.13;6917365;28;20257;-78
2022/12/30 04:30:42;;;;;;;1.57;1.50;;;;;;;10.67;58.52;98733.97;6918297;28;20258;-78
2022/12/30 04:34:05;;;;;;;1.70;1.60;;;;;;;10.61;59.17;98753.66;6917934;28;20277;-78
2022/12/30 04:37:26;;;;;;;1.40;1.40;;;;;;;10.97;58.67;98751.38;6917270;28;20259;-78
2022/12/30 04:40:48;;;;;;;1.60;1.50;;;;;;;10.76;58.30;98754.31;6917781;28;20232;-78
2022/12/30 04:44:09;;;;;;;1.70;1.60;;;;;;;11.03;57.56;98762.16;6917568;28;20262;-78
2022/12/30 04:47:31;;;;;;;2.30;2.10;;;;;;;10.93;57.23;98756.34;6917256;28;20648;-77
2022/12/30 04:50:54;;;;;;;2.17;1.97;;;;;;;10.87;56.79;98772.56;6919842;28;20269;-78
2022/12/30 04:54:15;;;;;;;2.30;2.10;;;;;;;10.67;57.54;98777.94;6922834;28;20267;-77
2022/12/30 04:57:37;;;;;;;2.03;1.93;;;;;;;10.48;56.45;98759.06;6921695;28;20231;-78
2022/12/30 05:00:58;;;;;;;1.90;1.80;;;;;;;10.20;57.67;98772.69;6922290;28;20223;-78
2022/12/30 05:04:20;;;;;;;1.90;1.80;;;;;;;10.20;59.07;98778.06;6921893;28;20192;-78
2022/12/30 05:07:43;;;;;;;1.80;1.70;;;;;;;10.06;58.72;98776.38;6921202;28;20231;-77
2022/12/30 05:11:04;;;;;;;2.10;1.90;;;;;;;9.98;60.24;98781.09;6921879;28;20203;-78
2022/12/30 05:14:26;;;;;;;1.67;1.60;;;;;;;10.17;59.91;98783.84;6941990;28;20662;-77
2022/12/30 05:17:47;;;;;;;1.80;1.70;;;;;;;10.26;59.54;98773.72;6946222;28;20764;-78
2022/12/30 05:21:09;;;;;;;1.57;1.53;;;;;;;10.64;58.66;98770.25;6947949;28;20352;-78
2022/12/30 05:28:11;;;;;;;1.80;1.70;;;;;;;10.27;57.65;98761.94;6945431;28;20227;-77
2022/12/30 05:31:32;;;;;;;2.07;1.97;;;;;;;10.47;58.05;98777.09;6943033;28;20191;-78
2022/12/30 05:34:54;;;;;;;1.90;1.80;;;;;;;10.26;58.88;98771.88;6948485;28;20584;-78
2022/12/30 05:38:15;;;;;;;2.17;1.60;;;;;;;10.11;59.24;98773.06;6948005;28;20655;-78
2022/12/30 05:41:38;;;;;;;1.50;1.50;;;;;;;10.15;59.61;98750.09;6948242;28;20223;-78
2022/12/30 05:44:59;;;;;;;1.60;1.50;;;;;;;10.31;58.93;98768.56;6948150;28;20207;-78
2022/12/30 05:48:21;;;;;;;2.10;1.70;;;;;;;10.04;58.91;98754.19;6946983;28;20316;-77
2022/12/30 05:51:42;;;;;;;2.10;2.00;;;;;;;10.04;59.01;98775.72;6946917;28;20570;-78
2022/12/30 05:55:04;;;;;;;1.90;1.80;;;;;;;9.94;59.12;98782.50;6947864;28;20255;-78
2022/12/30 05:58:28;;;;;;;2.13;1.93;;;;;;;8.90;62.06;98764.94;6950095;28;20296;-77
2022/12/30 06:01:49;;;;;;;2.10;2.00;;;;;;;9.63;60.35;98777.59;6947993;28;20262;-78
2022/12/30 06:05:11;;;;;;;1.90;1.80;;;;;;;9.83;59.18;98781.22;6947086;28;20309;-78
2022/12/30 06:08:32;;;;;;;2.37;2.27;;;;;;;10.17;57.91;98789.25;6946897;28;20309;-78
2022/12/30 06:11:54;;;;;;;2.27;2.03;;;;;;;8.93;59.48;98781.50;6942799;28;20209;-77
2022/12/30 06:15:17;;;;;;;2.47;2.37;;;;;;;9.46;59.64;98775.47;6945752;28;20272;-78
2022/12/30 06:18:38;;;;;;;2.70;2.10;;;;;;;9.73;59.02;98782.63;6943864;28;20644;-78
2022/12/30 06:22:00;;;;;;;2.83;2.30;;;;;;;9.16;57.02;98790.97;6928486;28;20271;-78
2022/12/30 06:25:21;;;;;;;2.10;2.00;;;;;;;9.30;58.23;98786.53;6920718;28;20209;-77
2022/12/30 06:28:43;;;;;;;3.00;2.27;;;;;;;9.30;57.62;98795.44;6945093;28;20270;-78
2022/12/30 06:32:06;;;;;;;2.50;2.40;;;;;;;9.44;57.82;98790.94;6919200;28;20271;-78
2022/12/30 06:35:27;;;;;;;3.97;2.77;;;;;;;8.61;57.98;98784.75;6933783;28;20213;-78
2022/12/30 06:38:49;;;;;;;3.40;3.10;;;;;;;8.49;59.07;98790.84;6945150;28;20770;-78
2022/12/30 06:42:10;;;;;;;4.50;3.27;;;;;;;8.48;59.97;98781.94;6946055;28;20237;-78
2022/12/30 06:45:32;;;;;;;3.00;2.80;;;;;;;8.58;60.00;98782.47;6945624;28;20209;-78
2022/12/30 06:48:55;;;;;;;3.30;3.00;;;;;;;8.44;59.76;98795.97;6944822;28;20237;-77
2022/12/30 06:52:16;;;;;;;3.00;2.30;;;;;;;8.32;60.06;98797.50;6945103;28;20356;-78
2022/12/30 06:55:38;;;;;;;2.60;2.40;;;;;;;8.34;61.01;98796.28;6930132;28;20264;-77
2022/12/30 06:58:59;;;;;;;2.20;2.10;;;;;;;8.74;60.05;98787.56;6938431;28;20311;-77
2022/12/30 07:02:21;;;;;;;2.10;2.00;;;;;;;8.79;60.05;98774.34;6947845;28;20313;-81
2022/12/30 07:05:44;;;;;;;2.27;2.17;;;;;;;8.71;59.19;98774.50;6948290;28;20293;-78
2022/12/30 07:09:05;;;;;;;2.50;2.30;;;;;;;8.80;59.73;98776.03;6946910;28;20284;-77
2022/12/30 07:12:26;;;;;;;1.90;1.80;;;;;;;9.19;59.04;98765.56;6946801;28;20327;-79
2022/12/30 07:15:48;;;;;;;2.20;2.00;;;;;;;8.74;57.54;98758.00;6949161;28;20362;-80
2022/12/30 07:19:11;;;;;;;3.27;2.10;;;;;;;8.16;57.73;98758.25;6947650;28;20311;-81
2022/12/30 07:22:33;;;;;;;2.10;2.00;;;;;;;8.09;58.79;98792.25;6950738;28;20316;-84
2022/12/30 07:25:57;;;;;;;3.40;2.37;;;;;;;8.36;58.04;98796.91;6950326;28;20274;-82
2022/12/30 07:29:20;;;;;;;2.77;2.57;;;;;;;7.89;59.48;98785.00;6954545;28;20240;-82
2022/12/30 07:32:42;;;;;;;5.17;4.67;;;;;;;7.80;59.13;98721.72;6955257;28;20480;-80
2022/12/30 07:36:05;;;;;;;4.63;4.23;;;;;;;8.05;59.85;98804.41;6949956;28;20265;-78
2022/12/30 07:39:29;;;;;;;4.50;4.10;;;;;;;8.15;60.29;98799.56;6948457;28;20229;-76
2022/12/30 07:42:50;;;;;;;3.57;3.27;;;;;;;8.02;60.06;98799.38;6947572;28;20237;-76
2022/12/30 07:46:12;;;;;;;3.20;2.90;;;;;;;7.73;61.21;98790.56;6946781;28;20611;-78
2022/12/30 07:49:34;;;;;;;4.60;3.53;;;;;;;8.00;61.12;98800.59;6949428;28;20208;-78
2022/12/30 07:52:55;;;;;;;4.40;3.33;;;;;;;7.91;61.52;98799.06;6947677;28;20267;-79
2022/12/30 07:56:18;;;;;;;3.30;3.00;;;;;;;8.11;61.69;98795.59;6947524;28;20233;-82
2022/12/30 07:59:40;;;;;;;3.40;3.10;;;;;;;8.27;60.90;98790.00;6949617;28;20284;-79
2022/12/30 08:03:01;;;;;;;3.60;2.97;;;;;;;8.23;60.99;98782.50;6928096;28;20372;-79
2022/12/30 08:06:23;;;;;;;6.30;4.43;;;;;;;8.69;60.43;98784.63;6940461;28;20301;-79
2022/12/30 08:09:44;;;;;;;3.33;3.03;;;;;;;8.85;60.12;98781.63;6947818;28;20251;-79
2022/12/30 08:13:10;;;;;;;3.70;3.20;;;;;;;8.19;60.51;98757.84;6950646;28;20202;-80
2022/12/30 08:16:32;;;;;;;4.30;3.83;;;;;;;8.23;60.85;98780.66;6941892;28;20224;-82
2022/12/30 08:20:46;;;;;;;4.23;3.83;;;;;;;8.69;60.63;98773.88;6949192;28;20353;-84
2022/12/30 08:24:09;;;;;;;4.73;3.40;;;;;;;8.48;60.44;98776.56;6926697;28;20214;-81
2022/12/30 08:27:32;;;;;;;5.70;5.20;;;;;;;8.25;61.72;98772.44;6931386;28;20255;-81
2022/12/30 08:31:15;;;;;;;9.13;5.40;;;;;;;8.88;60.62;98766.97;6958171;28;20271;-87
2022/12/30 08:34:37;;;;;;;5.17;4.67;;;;;;;9.28;59.67;98772.44;6957946;28;20218;-77
2022/12/30 08:37:59;;;;;;;4.27;3.87;;;;;;;9.12;59.50;98764.69;6954140;28;20306;-78
2022/12/30 08:41:23;;;;;;;5.07;4.13;;;;;;;9.37;58.59;98747.03;6954489;28;20223;-82
2022/12/30 08:44:44;;;;;;;4.57;4.17;;;;;;;9.45;59.75;98752.28;6952927;28;20206;-79
2022/12/30 08:48:07;;;;;;;7.60;3.70;;;;;;;10.55;56.65;98741.00;6949936;28;20226;-79
2022/12/30 08:51:33;;;;;;;4.03;3.63;;;;;;;11.26;53.75;98732.88;6951003;28;20344;-79
2022/12/30 08:54:54;;;;;;;4.53;4.13;;;;;;;11.29;53.58;98740.56;6951930;28;20341;-79
2022/12/30 08:58:16;;;;;;;12.63;10.60;;;;;;;11.13;55.11;98742.84;6947790;28;20224;-78
2022/12/30 09:01:40;;;;;;;44.90;35.27;;;;;;;10.84;55.54;98727.13;6936379;28;20666;-78
2022/12/30 09:05:03;;;;;;;17.17;13.87;;;;;;;9.84;59.28;98726.34;6924257;28;20216;-79
2022/12/30 09:08:24;;;;;;;5.27;4.77;;;;;;;10.97;57.81;98705.50;6931877;28;20377;-78
2022/12/30 09:11:47;;;;;;;3.50;3.20;;;;;;;11.65;56.74;98710.34;6926650;28;20286;-78
2022/12/30 09:15:09;;;;;;;5.27;3.73;;;;;;;12.14;55.59;98708.66;6924489;28;20222;-77
2022/12/30 09:18:31;;;;;;;8.30;6.43;;;;;;;11.93;53.83;98708.97;6923600;28;20338;-76
2022/12/30 09:21:54;;;;;;;5.60;4.97;;;;;;;12.00;55.76;98706.22;6935164;28;20768;-79
2022/12/30 09:25:15;;;;;;;2.50;2.30;;;;;;;12.44;55.14;98703.44;6956215;28;20271;-77
2022/12/30 09:28:37;;;;;;;2.13;2.03;;;;;;;12.41;54.25;98706.59;6963123;28;20337;-77
2022/12/30 09:31:58;;;;;;;1.90;1.80;;;;;;;12.54;54.23;98701.09;6952376;28;20253;-77
2022/12/30 09:35:20;;;;;;;2.27;2.07;;;;;;;13.08;53.17;98702.09;6950111;28;20813;-77
2022/12/30 09:38:43;;;;;;;2.10;1.90;;;;;;;13.60;51.60;98671.72;6949155;28;20276;-77
2022/12/30 09:45:53;;;;;;;1.50;1.40;;;;;;;13.98;50.44;98664.09;6922979;28;20188;-78
2022/12/30 09:49:22;;;;;;;2.30;1.73;;;;;;;14.00;49.91;98666.59;6921572;28;20315;-77
2022/12/30 09:52:50;;;;;;;1.70;1.60;;;;;;;14.05;50.46;98666.72;6922157;28;20214;-77
2022/12/30 09:56:16;;;;;;;2.50;1.97;;;;;;;14.03;49.27;98652.56;6921994;28;20341;-77
2022/12/30 09:59:38;;;;;;;1.60;1.50;;;;;;;14.45;49.15;98643.41;6930970;28;20231;-78
2022/12/30 10:03:03;;;;;;;2.07;1.50;;;;;;;14.29;49.23;98630.53;6948400;28;20247;-77
2022/12/30 10:06:29;;;;;;;1.73;1.63;;;;;;;14.55;48.33;98620.06;6948392;28;20206;-77
2022/12/30 10:09:53;;;;;;;1.70;1.60;;;;;;;15.05;47.68;98607.66;6948713;28;20258;-77
2022/12/30 10:13:21;;;;;;;1.80;1.70;;;;;;;14.77;47.63;98604.03;6948760;28;20235;-77
2022/12/30 10:16:52;;;;;;;4.00;1.60;;;;;;;14.89;47.82;98599.41;6948208;28;20324;-78
2022/12/30 10:20:19;;;;;;;2.00;1.90;;;;;;;14.87;47.76;98591.50;6949221;28;20329;-78
2022/12/30 10:23:50;;;;;;;2.00;1.80;;;;;;;14.88;47.45;98574.16;6949039;28;20223;-78
2022/12/30 10:27:19;;;;;;;1.90;1.80;;;;;;;15.06;47.43;98559.59;6948089;28;20862;-78
2022/12/30 10:30:44;;;;;;;5.83;2.10;;;;;;;14.93;47.89;98570.75;6948386;28;20203;-78
2022/12/30 10:34:13;;;;;;;2.00;1.87;;;;;;;14.74;48.55;98564.59;6948462;28;20258;-78
2022/12/30 10:37:36;;;;;;;4.43;2.00;;;;;;;14.67;48.84;98571.22;6946914;28;20231;-76
2022/12/30 10:41:05;;;;;;;1.93;1.83;;;;;;;14.73;47.99;98540.41;6947203;28;20259;-78
2022/12/30 10:44:30;;;;;;;1.90;1.80;;;;;;;15.46;46.88;98563.19;6947501;28;20193;-77
2022/12/30 10:47:59;;;;;;;1.80;1.70;;;;;;;15.68;46.37;98558.75;6945534;28;20235;-77
2022/12/30 10:51:21;;;;;;;2.80;2.20;;;;;;;16.16;46.16;98562.59;6947529;28;20327;-76
2022/12/30 10:54:45;;;;;;;1.70;1.60;;;;;;;15.93;46.13;98551.03;6947971;28;20209;-75
2022/12/30 10:58:24;;;;;;;1.77;1.67;;;;;;;16.13;46.21;98546.78;6945895;28;20227;-78
2022/12/30 11:01:47;;;;;;;1.90;1.70;;;;;;;16.37;44.89;98541.97;6945628;28;20254;-77
2022/12/30 11:05:32;;;;;;;1.60;1.50;;;;;;;15.86;46.41;98520.47;6945758;28;20295;-77
2022/12/30 11:08:54;;;;;;;1.23;1.23;;;;;;;16.59;44.79;98526.56;6945291;28;20309;-77
2022/12/30 11:16:11;;;;;;;2.00;1.90;;;;;;;16.50;44.76;98509.84;6941449;28;20295;-79
2022/12/30 11:19:32;;;;;;;2.33;1.77;;;;;;;16.53;45.29;98513.97;6947161;28;20295;-78
2022/12/30 11:22:57;;;;;;;2.40;2.20;;;;;;;16.50;44.66;98498.97;6934908;28;20252;-78
2022/12/30 11:26:20;;;;;;;1.93;1.50;;;;;;;16.45;44.45;98501.59;6944727;28;20343;-78
2022/12/30 11:29:44;;;;;;;1.80;1.70;;;;;;;16.67;43.79;98507.06;6935125;28;20252;-78
2022/12/30 11:33:15;;;;;;;2.20;1.53;;;;;;;16.20;44.33;98512.06;6921129;28;20349;-78
2022/12/30 11:36:37;;;;;;;2.03;1.87;;;;;;;16.70;43.07;98501.16;6922693;28;20708;-77
2022/12/30 11:40:25;;;;;;;1.90;1.80;;;;;;;16.74;43.48;98500.38;6946956;28;20216;-77
2022/12/30 11:43:48;;;;;;;2.30;1.87;;;;;;;16.88;42.99;98493.47;6946727;28;20715;-77
2022/12/30 11:47:11;;;;;;;1.90;1.80;;;;;;;16.16;44.49;98486.41;6945961;28;20318;-77
2022/12/30 11:50:32;;;;;;;1.60;1.50;;;;;;;15.62;45.25;98475.47;6937898;28;20206;-77
2022/12/30 11:54:03;;;;;;;1.70;1.60;;;;;;;15.88;45.49;98491.13;6925311;28;20235;-76
2022/12/30 11:57:30;;;;;;;2.40;1.70;;;;;;;16.32;44.09;98476.59;6945314;28;20315;-78
2022/12/30 12:00:58;;;;;;;1.80;1.70;;;;;;;16.09;44.56;98472.19;6948077;28;20222;-78
2022/12/30 12:04:33;;;;;;;1.60;1.50;;;;;;;15.47;46.10;98453.44;6925096;28;20703;-78
2022/12/30 12:07:58;;;;;;;1.87;1.50;;;;;;;15.78;45.43;98437.41;6922759;28;20920;-78
2022/12/30 12:11:24;;;;;;;1.47;1.37;;;;;;;15.15;47.39;98444.13;6948009;28;20357;-78
2022/12/30 12:14:55;;;;;;;6.00;1.87;;;;;;;15.04;47.16;98464.00;6979453;28;20208;-77
2022/12/30 12:18:21;;;;;;;1.60;1.50;;;;;;;15.38;46.08;98466.59;6978648;28;20322;-78
2022/12/30 12:21:43;;;;;;;1.60;1.50;;;;;;;15.06;46.55;98453.72;6979234;28;20756;-78
2022/12/30 12:25:14;;;;;;;1.60;1.50;;;;;;;15.27;46.53;98445.72;6979248;28;20692;-78
2022/12/30 12:28:39;;;;;;;1.40;1.40;;;;;;;15.39;46.15;98437.56;6955941;28;20263;-78
2022/12/30 12:32:27;;;;;;;1.53;1.43;;;;;;;14.95;46.44;98444.56;6924812;28;20293;-78
2022/12/30 12:35:55;;;;;;;1.70;1.60;;;;;;;15.20;46.02;98436.88;6947488;28;20294;-78
2022/12/30 12:39:24;;;;;;;1.90;1.80;;;;;;;14.69;47.59;98434.25;6950429;28;20265;-78
2022/12/30 12:42:51;;;;;;;1.30;1.30;;;;;;;14.99;46.90;98413.13;6949817;28;20227;-78
2022/12/30 12:46:34;;;;;;;1.47;1.43;;;;;;;14.66;47.38;98407.59;6923314;28;20293;-78
2022/12/30 12:50:06;;;;;;;1.73;1.50;;;;;;;14.33;48.55;98385.72;6923692;28;20209;-78
2022/12/30 12:53:49;;;;;;;1.80;1.70;;;;;;;14.61;48.06;98391.22;6926817;28;20204;-78
2022/12/30 12:57:14;;;;;;;1.63;1.50;;;;;;;14.86;46.99;98407.19;6912645;28;20232;-78
2022/12/30 13:00:45;;;;;;;1.30;1.30;;;;;;;15.00;47.72;98401.22;6923743;28;20287;-78
2022/12/30 13:04:16;;;;;;;1.20;1.20;;;;;;;15.05;47.17;98414.06;6923920;28;20264;-78
2022/12/30 13:07:47;;;;;;;2.00;1.50;;;;;;;15.50;46.80;98398.59;6921932;28;20775;-79
2022/12/30 13:11:13;;;;;;;1.70;1.60;;;;;;;15.30;46.83;98384.66;6924904;28;20265;-77
2022/12/30 13:14:38;;;;;;;1.60;1.40;;;;;;;14.97;47.36;98382.69;6923538;28;20251;-77
2022/12/30 13:18:03;;;;;;;1.53;1.43;;;;;;;15.20;46.85;98369.00;6939593;28;20311;-77
2022/12/30 13:21:25;;;;;;;1.43;1.43;;;;;;;15.46;46.65;98376.53;6949891;28;20708;-77
2022/12/30 13:24:50;;;;;;;1.50;1.40;;;;;;;15.09;47.13;98359.03;6950475;28;20632;-78
2022/12/30 13:28:19;;;;;;;2.17;1.50;;;;;;;15.33;46.52;98327.97;6943975;28;20298;-78
2022/12/30 13:31:45;;;;;;;1.33;1.23;;;;;;;15.45;46.68;98336.84;6949810;28;20291;-78
2022/12/30 13:35:32;;;;;;;1.53;1.50;;;;;;;15.34;46.71;98320.66;6949541;28;20697;-78
2022/12/30 13:39:02;;;;;;;1.70;1.60;;;;;;;15.58;47.31;98325.66;6945819;28;20334;-78
2022/12/30 13:42:48;;;;;;;2.10;2.00;;;;;;;15.78;46.75;98325.13;6950202;28;20224;-79
2022/12/30 13:46:16;;;;;;;3.23;2.27;;;;;;;15.83;47.02;98311.63;6935868;28;20416;-76
2022/12/30 13:49:40;;;;;;;2.70;2.50;;;;;;;15.90;46.73;98313.09;6946282;28;20286;-80
2022/12/30 13:53:03;;;;;;;2.80;2.50;;;;;;;15.93;46.53;98296.25;6952196;28;20355;-77
2022/12/30 13:56:34;;;;;;;2.60;2.40;;;;;;;15.74;46.39;98294.13;6946812;28;20268;-77
2022/12/30 14:00:10;;;;;;;2.50;2.00;;;;;;;15.91;46.07;98305.75;6948837;28;20204;-77
2022/12/30 14:03:36;;;;;;;2.03;1.70;;;;;;;15.78;45.79;98308.81;6948556;28;20227;-77
2022/12/30 14:06:59;;;;;;;2.90;1.73;;;;;;;15.84;46.42;98291.50;6947529;28;20233;-77
2022/12/30 14:10:41;;;;;;;1.70;1.60;;;;;;;15.83;45.96;98281.72;6944110;28;20205;-77
2022/12/30 14:14:17;;;;;;;2.57;2.10;;;;;;;15.97;45.93;98282.97;6942679;28;20676;-78
2022/12/30 14:17:40;;;;;;;3.13;2.67;;;;;;;15.91;47.02;98275.84;6920247;28;20227;-77
2022/12/30 14:21:05;;;;;;;3.23;2.30;;;;;;;15.84;47.18;98278.75;6942979;28;20670;-77
2022/12/30 14:24:53;;;;;;;2.80;2.50;;;;;;;15.82;47.97;98282.78;6948619;28;20315;-78
2022/12/30 14:28:19;;;;;;;2.40;2.20;;;;;;;15.77;47.66;98286.28;6877544;28;20307;-77
2022/12/30 14:31:46;;;;;;;2.93;2.50;;;;;;;15.51;47.80;98243.50;6921485;28;20677;-77
2022/12/30 14:35:09;;;;;;;1.97;1.87;;;;;;;15.49;48.23;98270.09;6921217;28;20630;-77
2022/12/30 14:38:35;;;;;;;2.73;2.30;;;;;;;15.23;49.01;98273.44;6919897;28;20257;-76
2022/12/30 14:41:58;;;;;;;2.57;2.10;;;;;;;14.73;49.50;98264.47;6938060;28;20266;-77
2022/12/30 14:45:22;;;;;;;3.00;2.70;;;;;;;14.89;50.25;98282.66;6947371;28;20350;-77
2022/12/30 14:49:00;;;;;;;4.90;3.73;;;;;;;15.01;49.61;98277.97;6947194;28;20654;-77
2022/12/30 14:52:25;;;;;;;4.47;3.27;;;;;;;15.04;49.26;98272.03;6947480;28;20323;-77
2022/12/30 14:55:48;;;;;;;5.73;3.00;;;;;;;15.15;49.16;98256.75;6946030;28;20744;-76
2022/12/30 14:59:12;;;;;;;4.37;3.20;;;;;;;15.24;49.76;98277.00;6925990;28;20223;-77
2022/12/30 15:02:35;;;;;;;2.93;2.60;;;;;;;14.97;50.56;98273.28;6964224;28;20284;-76
2022/12/30 15:05:58;;;;;;;3.23;2.67;;;;;;;14.78;51.57;98274.56;6974543;28;20292;-76
2022/12/30 15:09:24;;;;;;;2.50;2.30;;;;;;;15.01;51.36;98277.16;6971916;28;20236;-76
2022/12/30 15:12:45;;;;;;;2.60;1.87;;;;;;;15.20;51.07;98265.81;6952164;28;20265;-77
2022/12/30 15:16:08;;;;;;;2.33;2.07;;;;;;;14.68;52.25;98267.06;6944305;28;20252;-77
2022/12/30 15:19:30;;;;;;;1.77;1.67;;;;;;;14.56;53.14;98270.91;6943383;28;20233;-76
2022/12/30 15:22:51;;;;;;;2.63;1.70;;;;;;;14.63;53.25;98266.16;6947517;28;20361;-77
2022/12/30 15:26:16;;;;;;;1.47;1.40;;;;;;;14.59;53.06;98267.72;6946595;28;20233;-78
2022/12/30 15:29:38;;;;;;;1.60;1.50;;;;;;;14.66;53.05;98273.81;6947572;28;20253;-79
2022/12/30 15:33:06;;;;;;;1.93;1.83;;;;;;;14.73;52.55;98260.91;6934554;28;20253;-79
2022/12/30 15:36:28;;;;;;;3.17;2.10;;;;;;;14.97;51.97;98268.69;6944799;28;20230;-78
2022/12/30 15:39:52;;;;;;;2.50;1.63;;;;;;;14.66;52.86;98255.66;6946385;28;20211;-77
2022/12/30 15:43:17;;;;;;;1.60;1.50;;;;;;;14.68;52.81;98253.50;6945420;28;20260;-77
2022/12/30 15:46:49;;;;;;;1.87;1.77;;;;;;;14.40;52.90;98218.25;6944756;28;20318;-77
2022/12/30 15:50:29;;;;;;;1.80;1.70;;;;;;;14.93;52.61;98248.50;6944205;28;20211;-77
2022/12/30 15:53:52;;;;;;;1.77;1.50;;;;;;;14.69;53.20;98251.63;6916248;28;20244;-76
2022/12/30 15:57:16;;;;;;;1.80;1.60;;;;;;;14.86;52.72;98244.34;6915156;28;20239;-76
2022/12/30 16:00:39;;;;;;;2.40;1.87;;;;;;;14.94;52.50;98250.19;6916386;28;20301;-77
2022/12/30 16:04:02;;;;;;;1.70;1.60;;;;;;;15.07;51.85;98247.13;6916423;28;20257;-77
2022/12/30 16:07:26;;;;;;;1.83;1.73;;;;;;;14.49;53.01;98249.38;6916189;28;20230;-77
2022/12/30 16:11:00;;;;;;;2.33;2.13;;;;;;;14.26;53.92;98226.94;6917834;28;20669;-77
2022/12/30 16:14:28;;;;;;;1.63;1.53;;;;;;;14.28;53.48;98235.69;6917862;28;20295;-77
2022/12/30 16:17:56;;;;;;;2.17;2.00;;;;;;;14.26;53.52;98225.06;6920385;28;20227;-77
2022/12/30 16:21:20;;;;;;;2.13;1.67;;;;;;;14.50;53.76;98229.31;6916820;28;20256;-79
2022/12/30 16:24:41;;;;;;;1.90;1.80;;;;;;;14.35;53.76;98223.63;6925470;28;20835;-76
2022/12/30 16:28:04;;;;;;;2.00;1.90;;;;;;;14.47;53.37;98224.38;6943915;28;20380;-77
2022/12/30 16:31:25;;;;;;;2.67;1.70;;;;;;;14.16;54.25;98205.84;6944012;28;20272;-77
2022/12/30 16:34:48;;;;;;;1.90;1.80;;;;;;;14.23;54.60;98208.47;6938767;28;20332;-75
2022/12/30 16:38:11;;;;;;;2.03;1.80;;;;;;;14.20;54.92;98215.19;6916218;28;20224;-76
2022/12/30 16:41:32;;;;;;;2.00;1.90;;;;;;;14.45;53.86;98204.81;6935087;28;20327;-76
2022/12/30 16:44:54;;;;;;;1.50;1.47;;;;;;;14.34;54.16;98213.81;6945772;28;20324;-77
2022/12/30 16:48:16;;;;;;;1.87;1.70;;;;;;;14.44;54.18;98196.91;6948882;28;20315;-77
2022/12/30 16:51:45;;;;;;;1.80;1.70;;;;;;;14.47;54.19;98204.56;6949241;28;20216;-75
2022/12/30 16:55:09;;;;;;;1.67;1.57;;;;;;;14.27;54.34;98210.44;6949976;28;20229;-77
2022/12/30 16:58:31;;;;;;;1.67;1.57;;;;;;;14.53;54.22;98204.41;6943215;28;20228;-77
2022/12/30 17:01:56;;;;;;;1.60;1.50;;;;;;;14.47;53.86;98201.84;6949188;28;20220;-77